sensor_id;sensor_type;location;lat;lon;timestamp;temperature;humidity
75321;DHT22;68337;52.196;5.660;2023-06-01T00:01:01;11.50;99.90
75321;DHT22;68337;52.196;5.660;2023-06-01T00:03:29;11.50;99.90
75321;DHT22;68337;52.196;5.660;2023-06-01T00:05:55;11.60;99.90
75321;DHT22;68337;52.196;5.660;2023-06-01T00:08:22;11.50;99.90
75321;DHT22;68337;52.196;5.660;2023-06-01T00:10:50;11.40;99.90
75321;DHT22;68337;52.196;5.660;2023-06-01T00:13:16;11.40;99.90
75321;DHT22;68337;52.196;5.660;2023-06-01T00:15:41;11.40;99.90
75321;DHT22;68337;52.196;5.660;2023-06-01T00:18:09;11.40;99.90
75321;DHT22;68337;52.196;5.660;2023-06-01T00:20:38;11.40;99.90
75321;DHT22;68337;52.196;5.660;2023-06-01T00:23:04;11.40;99.90
75321;DHT22;68337;52.196;5.660;2023-06-01T00:25:31;11.50;99.90
75321;DHT22;68337;52.196;5.660;2023-06-01T00:27:56;11.50;99.90
75321;DHT22;68337;52.196;5.660;2023-06-01T00:30:22;11.50;99.90
75321;DHT22;68337;52.196;5.660;2023-06-01T00:32:48;11.50;99.90
75321;DHT22;68337;52.196;5.660;2023-06-01T00:35:13;11.50;99.90
75321;DHT22;68337;52.196;5.660;2023-06-01T00:37:39;11.50;99.90
75321;DHT22;68337;52.196;5.660;2023-06-01T00:40:05;11.50;99.90
75321;DHT22;68337;52.196;5.660;2023-06-01T00:42:32;11.50;99.90
75321;DHT22;68337;52.196;5.660;2023-06-01T00:44:58;11.50;99.90
75321;DHT22;68337;52.196;5.660;2023-06-01T00:47:24;11.40;99.90
75321;DHT22;68337;52.196;5.660;2023-06-01T00:49:50;11.40;99.90
75321;DHT22;68337;52.196;5.660;2023-06-01T00:52:16;11.40;99.90
75321;DHT22;68337;52.196;5.660;2023-06-01T00:54:42;11.50;99.90
75321;DHT22;68337;52.196;5.660;2023-06-01T00:57:08;11.50;99.90
75321;DHT22;68337;52.196;5.660;2023-06-01T00:59:34;11.50;99.90
75321;DHT22;68337;52.196;5.660;2023-06-01T01:02:01;11.60;99.90
75321;DHT22;68337;52.196;5.660;2023-06-01T01:04:29;11.50;99.90
75321;DHT22;68337;52.196;5.660;2023-06-01T01:07:25;11.50;99.90
75321;DHT22;68337;52.196;5.660;2023-06-01T01:10:02;11.60;99.90
75321;DHT22;68337;52.196;5.660;2023-06-01T01:12:45;11.50;99.90
75321;DHT22;68337;52.196;5.660;2023-06-01T01:15:21;11.50;99.90
75321;DHT22;68337;52.196;5.660;2023-06-01T01:17:53;11.50;99.90
75321;DHT22;68337;52.196;5.660;2023-06-01T01:20:26;11.50;99.90
75321;DHT22;68337;52.196;5.660;2023-06-01T01:28:51;11.40;99.90
75321;DHT22;68337;52.196;5.660;2023-06-01T01:31:22;11.40;99.90
75321;DHT22;68337;52.196;5.660;2023-06-01T01:33:49;11.40;99.90
75321;DHT22;68337;52.196;5.660;2023-06-01T01:36:16;11.30;99.90
75321;DHT22;68337;52.196;5.660;2023-06-01T01:38:42;11.30;99.90
75321;DHT22;68337;52.196;5.660;2023-06-01T01:41:11;11.20;99.90
75321;DHT22;68337;52.196;5.660;2023-06-01T01:43:37;11.30;99.90
75321;DHT22;68337;52.196;5.660;2023-06-01T01:46:26;11.30;99.90
75321;DHT22;68337;52.196;5.660;2023-06-01T01:49:09;11.30;99.90
75321;DHT22;68337;52.196;5.660;2023-06-01T01:52:00;11.30;99.90
75321;DHT22;68337;52.196;5.660;2023-06-01T01:54:27;11.20;99.90
75321;DHT22;68337;52.196;5.660;2023-06-01T01:56:56;11.30;99.90
75321;DHT22;68337;52.196;5.660;2023-06-01T01:59:23;11.20;99.90
75321;DHT22;68337;52.196;5.660;2023-06-01T02:01:50;11.20;99.90
75321;DHT22;68337;52.196;5.660;2023-06-01T02:04:16;11.10;99.90
75321;DHT22;68337;52.196;5.660;2023-06-01T02:06:41;11.10;99.90
75321;DHT22;68337;52.196;5.660;2023-06-01T02:09:07;11.10;99.90
75321;DHT22;68337;52.196;5.660;2023-06-01T02:11:33;11.20;99.90
75321;DHT22;68337;52.196;5.660;2023-06-01T02:13:59;11.30;99.90
75321;DHT22;68337;52.196;5.660;2023-06-01T02:16:25;11.30;99.90
75321;DHT22;68337;52.196;5.660;2023-06-01T02:18:51;11.20;99.90
75321;DHT22;68337;52.196;5.660;2023-06-01T02:21:17;11.30;99.90
75321;DHT22;68337;52.196;5.660;2023-06-01T02:23:43;11.30;99.90
75321;DHT22;68337;52.196;5.660;2023-06-01T02:26:09;11.30;99.90
75321;DHT22;68337;52.196;5.660;2023-06-01T02:28:38;11.30;99.90
75321;DHT22;68337;52.196;5.660;2023-06-01T02:31:05;11.30;99.90
75321;DHT22;68337;52.196;5.660;2023-06-01T02:33:31;11.10;99.90
75321;DHT22;68337;52.196;5.660;2023-06-01T02:35:58;11.10;99.90
75321;DHT22;68337;52.196;5.660;2023-06-01T02:38:23;11.10;99.90
75321;DHT22;68337;52.196;5.660;2023-06-01T02:40:49;11.10;99.90
75321;DHT22;68337;52.196;5.660;2023-06-01T02:43:15;11.20;99.90
75321;DHT22;68337;52.196;5.660;2023-06-01T02:45:40;11.10;99.90
75321;DHT22;68337;52.196;5.660;2023-06-01T02:48:06;11.10;99.90
75321;DHT22;68337;52.196;5.660;2023-06-01T02:50:32;11.10;99.90
75321;DHT22;68337;52.196;5.660;2023-06-01T02:52:58;11.20;99.90
75321;DHT22;68337;52.196;5.660;2023-06-01T02:55:23;11.20;99.90
75321;DHT22;68337;52.196;5.660;2023-06-01T02:57:49;11.20;99.90
75321;DHT22;68337;52.196;5.660;2023-06-01T03:00:15;11.20;99.90
75321;DHT22;68337;52.196;5.660;2023-06-01T03:02:46;11.20;99.90
75321;DHT22;68337;52.196;5.660;2023-06-01T03:05:13;11.20;99.90
75321;DHT22;68337;52.196;5.660;2023-06-01T03:07:40;11.20;99.90
75321;DHT22;68337;52.196;5.660;2023-06-01T03:10:07;11.30;99.90
75321;DHT22;68337;52.196;5.660;2023-06-01T03:12:33;11.30;99.90
75321;DHT22;68337;52.196;5.660;2023-06-01T03:14:59;11.30;99.90
75321;DHT22;68337;52.196;5.660;2023-06-01T03:17:25;11.30;99.90
75321;DHT22;68337;52.196;5.660;2023-06-01T03:19:51;11.30;99.90
75321;DHT22;68337;52.196;5.660;2023-06-01T03:22:17;11.30;99.90
75321;DHT22;68337;52.196;5.660;2023-06-01T03:24:42;11.30;99.90
75321;DHT22;68337;52.196;5.660;2023-06-01T03:27:09;11.30;99.90
75321;DHT22;68337;52.196;5.660;2023-06-01T03:29:36;11.30;99.90
75321;DHT22;68337;52.196;5.660;2023-06-01T03:32:02;11.20;99.90
75321;DHT22;68337;52.196;5.660;2023-06-01T03:34:28;11.20;99.90
75321;DHT22;68337;52.196;5.660;2023-06-01T03:36:54;11.20;99.90
75321;DHT22;68337;52.196;5.660;2023-06-01T03:39:21;11.20;99.90
75321;DHT22;68337;52.196;5.660;2023-06-01T03:41:47;11.40;99.90
75321;DHT22;68337;52.196;5.660;2023-06-01T03:44:13;11.20;99.90
75321;DHT22;68337;52.196;5.660;2023-06-01T03:46:39;11.20;99.90
75321;DHT22;68337;52.196;5.660;2023-06-01T03:49:05;11.20;99.90
75321;DHT22;68337;52.196;5.660;2023-06-01T03:51:31;11.20;99.90
75321;DHT22;68337;52.196;5.660;2023-06-01T03:53:57;11.10;99.90
75321;DHT22;68337;52.196;5.660;2023-06-01T03:56:23;11.20;99.90
75321;DHT22;68337;52.196;5.660;2023-06-01T03:58:49;11.20;99.90
75321;DHT22;68337;52.196;5.660;2023-06-01T04:01:16;11.20;99.90
75321;DHT22;68337;52.196;5.660;2023-06-01T04:03:46;11.30;99.90
75321;DHT22;68337;52.196;5.660;2023-06-01T04:06:14;11.20;99.90
75321;DHT22;68337;52.196;5.660;2023-06-01T04:08:46;11.30;99.90
75321;DHT22;68337;52.196;5.660;2023-06-01T04:11:16;11.30;99.90
75321;DHT22;68337;52.196;5.660;2023-06-01T04:13:43;11.20;99.90
75321;DHT22;68337;52.196;5.660;2023-06-01T04:16:09;11.30;99.90
75321;DHT22;68337;52.196;5.660;2023-06-01T04:18:35;11.40;99.90
75321;DHT22;68337;52.196;5.660;2023-06-01T04:21:01;11.40;99.90
75321;DHT22;68337;52.196;5.660;2023-06-01T04:23:26;11.40;99.90
75321;DHT22;68337;52.196;5.660;2023-06-01T04:25:52;11.40;99.90
75321;DHT22;68337;52.196;5.660;2023-06-01T04:28:24;11.50;99.90
75321;DHT22;68337;52.196;5.660;2023-06-01T04:30:50;11.40;99.90
75321;DHT22;68337;52.196;5.660;2023-06-01T04:33:17;11.40;99.90
75321;DHT22;68337;52.196;5.660;2023-06-01T04:35:42;11.50;99.90
75321;DHT22;68337;52.196;5.660;2023-06-01T04:38:09;11.50;99.90
75321;DHT22;68337;52.196;5.660;2023-06-01T04:40:34;11.60;99.90
75321;DHT22;68337;52.196;5.660;2023-06-01T04:43:00;11.60;99.90
75321;DHT22;68337;52.196;5.660;2023-06-01T04:45:28;11.70;99.90
75321;DHT22;68337;52.196;5.660;2023-06-01T04:47:59;11.50;99.90
75321;DHT22;68337;52.196;5.660;2023-06-01T04:50:25;11.50;99.90
75321;DHT22;68337;52.196;5.660;2023-06-01T04:52:54;11.50;99.90
75321;DHT22;68337;52.196;5.660;2023-06-01T04:55:20;11.50;99.90
75321;DHT22;68337;52.196;5.660;2023-06-01T04:57:46;11.50;99.90
75321;DHT22;68337;52.196;5.660;2023-06-01T05:00:13;11.60;99.90
75321;DHT22;68337;52.196;5.660;2023-06-01T05:02:41;11.70;99.90
75321;DHT22;68337;52.196;5.660;2023-06-01T05:05:08;11.70;99.90
75321;DHT22;68337;52.196;5.660;2023-06-01T05:07:34;11.60;99.90
75321;DHT22;68337;52.196;5.660;2023-06-01T05:10:02;11.60;99.90
75321;DHT22;68337;52.196;5.660;2023-06-01T05:12:34;11.60;99.90
75321;DHT22;68337;52.196;5.660;2023-06-01T05:15:03;11.70;99.90
75321;DHT22;68337;52.196;5.660;2023-06-01T05:17:29;11.80;99.90
75321;DHT22;68337;52.196;5.660;2023-06-01T05:19:54;11.80;99.90
75321;DHT22;68337;52.196;5.660;2023-06-01T05:22:21;11.70;99.90
75321;DHT22;68337;52.196;5.660;2023-06-01T05:24:46;11.70;99.90
75321;DHT22;68337;52.196;5.660;2023-06-01T05:27:12;11.60;99.90
75321;DHT22;68337;52.196;5.660;2023-06-01T05:29:38;11.70;99.90
75321;DHT22;68337;52.196;5.660;2023-06-01T05:32:06;11.70;99.90
75321;DHT22;68337;52.196;5.660;2023-06-01T05:34:32;11.70;99.90
75321;DHT22;68337;52.196;5.660;2023-06-01T05:36:58;11.70;99.90
75321;DHT22;68337;52.196;5.660;2023-06-01T05:39:23;11.50;99.90
75321;DHT22;68337;52.196;5.660;2023-06-01T05:41:53;11.60;99.90
75321;DHT22;68337;52.196;5.660;2023-06-01T05:44:19;11.60;99.90
75321;DHT22;68337;52.196;5.660;2023-06-01T05:46:45;11.80;99.90
75321;DHT22;68337;52.196;5.660;2023-06-01T05:49:10;11.90;99.90
75321;DHT22;68337;52.196;5.660;2023-06-01T05:51:36;12.00;99.90
75321;DHT22;68337;52.196;5.660;2023-06-01T05:54:03;11.90;99.90
75321;DHT22;68337;52.196;5.660;2023-06-01T05:56:30;12.00;99.90
75321;DHT22;68337;52.196;5.660;2023-06-01T05:58:56;12.00;99.90
75321;DHT22;68337;52.196;5.660;2023-06-01T06:01:22;12.10;99.90
75321;DHT22;68337;52.196;5.660;2023-06-01T06:03:48;12.20;99.90
75321;DHT22;68337;52.196;5.660;2023-06-01T06:06:13;12.10;99.90
75321;DHT22;68337;52.196;5.660;2023-06-01T06:08:39;12.40;99.90
75321;DHT22;68337;52.196;5.660;2023-06-01T06:11:05;12.40;99.90
75321;DHT22;68337;52.196;5.660;2023-06-01T06:13:30;12.50;99.90
75321;DHT22;68337;52.196;5.660;2023-06-01T06:15:56;12.70;99.90
75321;DHT22;68337;52.196;5.660;2023-06-01T06:18:22;12.90;99.90
75321;DHT22;68337;52.196;5.660;2023-06-01T06:20:47;13.10;99.90
75321;DHT22;68337;52.196;5.660;2023-06-01T06:23:13;13.00;99.90
75321;DHT22;68337;52.196;5.660;2023-06-01T06:25:39;12.90;99.90
75321;DHT22;68337;52.196;5.660;2023-06-01T06:28:08;13.00;99.90
75321;DHT22;68337;52.196;5.660;2023-06-01T06:30:33;13.20;99.90
75321;DHT22;68337;52.196;5.660;2023-06-01T06:32:59;13.00;99.90
75321;DHT22;68337;52.196;5.660;2023-06-01T06:35:25;13.00;99.90
75321;DHT22;68337;52.196;5.660;2023-06-01T06:37:51;13.10;99.90
75321;DHT22;68337;52.196;5.660;2023-06-01T06:40:17;13.10;99.90
75321;DHT22;68337;52.196;5.660;2023-06-01T06:42:45;13.30;99.90
75321;DHT22;68337;52.196;5.660;2023-06-01T06:45:10;13.40;99.90
75321;DHT22;68337;52.196;5.660;2023-06-01T06:47:36;13.50;99.90
75321;DHT22;68337;52.196;5.660;2023-06-01T06:50:02;13.60;99.90
75321;DHT22;68337;52.196;5.660;2023-06-01T06:52:28;13.60;99.90
75321;DHT22;68337;52.196;5.660;2023-06-01T06:54:54;13.90;99.90
75321;DHT22;68337;52.196;5.660;2023-06-01T06:57:19;13.90;99.90
75321;DHT22;68337;52.196;5.660;2023-06-01T06:59:45;14.00;99.90
75321;DHT22;68337;52.196;5.660;2023-06-01T07:02:11;14.10;99.90
75321;DHT22;68337;52.196;5.660;2023-06-01T07:04:38;13.90;99.90
75321;DHT22;68337;52.196;5.660;2023-06-01T07:07:04;13.80;99.90
75321;DHT22;68337;52.196;5.660;2023-06-01T07:09:31;14.00;99.90
75321;DHT22;68337;52.196;5.660;2023-06-01T07:11:57;14.30;99.90
75321;DHT22;68337;52.196;5.660;2023-06-01T07:14:22;14.20;99.90
75321;DHT22;68337;52.196;5.660;2023-06-01T07:16:48;14.30;99.90
75321;DHT22;68337;52.196;5.660;2023-06-01T07:19:14;14.30;99.90
75321;DHT22;68337;52.196;5.660;2023-06-01T07:21:39;14.20;99.90
75321;DHT22;68337;52.196;5.660;2023-06-01T07:24:06;14.20;99.90
75321;DHT22;68337;52.196;5.660;2023-06-01T07:26:32;14.40;99.90
75321;DHT22;68337;52.196;5.660;2023-06-01T07:28:57;14.30;99.90
75321;DHT22;68337;52.196;5.660;2023-06-01T07:31:25;14.40;99.90
75321;DHT22;68337;52.196;5.660;2023-06-01T07:33:53;14.40;99.90
75321;DHT22;68337;52.196;5.660;2023-06-01T07:36:21;14.50;99.90
75321;DHT22;68337;52.196;5.660;2023-06-01T07:38:49;14.20;99.90
75321;DHT22;68337;52.196;5.660;2023-06-01T07:41:16;14.10;99.90
75321;DHT22;68337;52.196;5.660;2023-06-01T07:43:41;14.10;99.90
75321;DHT22;68337;52.196;5.660;2023-06-01T07:46:07;14.30;99.90
75321;DHT22;68337;52.196;5.660;2023-06-01T07:48:33;14.30;99.90
75321;DHT22;68337;52.196;5.660;2023-06-01T07:51:02;14.40;99.90
75321;DHT22;68337;52.196;5.660;2023-06-01T07:53:28;14.20;99.90
75321;DHT22;68337;52.196;5.660;2023-06-01T07:55:54;14.20;99.90
75321;DHT22;68337;52.196;5.660;2023-06-01T07:58:20;14.30;99.90
75321;DHT22;68337;52.196;5.660;2023-06-01T08:00:46;14.40;99.90
75321;DHT22;68337;52.196;5.660;2023-06-01T08:03:12;14.50;99.90
75321;DHT22;68337;52.196;5.660;2023-06-01T08:05:40;14.70;99.90
75321;DHT22;68337;52.196;5.660;2023-06-01T08:08:07;15.00;99.90
75321;DHT22;68337;52.196;5.660;2023-06-01T08:10:33;15.80;99.90
75321;DHT22;68337;52.196;5.660;2023-06-01T08:12:58;16.10;99.90
75321;DHT22;68337;52.196;5.660;2023-06-01T08:15:24;16.20;99.90
75321;DHT22;68337;52.196;5.660;2023-06-01T08:17:52;16.10;99.90
75321;DHT22;68337;52.196;5.660;2023-06-01T08:20:18;15.80;99.90
75321;DHT22;68337;52.196;5.660;2023-06-01T08:22:51;15.80;99.90
75321;DHT22;68337;52.196;5.660;2023-06-01T08:25:17;15.70;99.90
75321;DHT22;68337;52.196;5.660;2023-06-01T08:27:46;15.30;99.90
75321;DHT22;68337;52.196;5.660;2023-06-01T08:30:13;15.20;99.90
75321;DHT22;68337;52.196;5.660;2023-06-01T08:32:38;15.10;99.90
75321;DHT22;68337;52.196;5.660;2023-06-01T08:35:06;15.30;99.90
75321;DHT22;68337;52.196;5.660;2023-06-01T08:37:32;15.80;99.90
75321;DHT22;68337;52.196;5.660;2023-06-01T08:39:57;16.40;99.90
75321;DHT22;68337;52.196;5.660;2023-06-01T08:42:54;17.20;99.90
75321;DHT22;68337;52.196;5.660;2023-06-01T08:45:23;17.90;99.90
75321;DHT22;68337;52.196;5.660;2023-06-01T08:47:49;18.60;99.90
75321;DHT22;68337;52.196;5.660;2023-06-01T08:50:18;18.80;99.90
75321;DHT22;68337;52.196;5.660;2023-06-01T08:52:46;18.20;99.90
75321;DHT22;68337;52.196;5.660;2023-06-01T08:55:13;17.60;99.90
75321;DHT22;68337;52.196;5.660;2023-06-01T08:57:42;17.70;99.90
75321;DHT22;68337;52.196;5.660;2023-06-01T09:00:12;17.80;99.90
75321;DHT22;68337;52.196;5.660;2023-06-01T09:02:38;17.50;99.90
75321;DHT22;68337;52.196;5.660;2023-06-01T09:05:05;18.30;99.90
75321;DHT22;68337;52.196;5.660;2023-06-01T09:07:31;18.60;99.90
75321;DHT22;68337;52.196;5.660;2023-06-01T09:09:57;18.60;99.90
75321;DHT22;68337;52.196;5.660;2023-06-01T09:12:28;17.90;99.90
75321;DHT22;68337;52.196;5.660;2023-06-01T09:15:08;18.30;99.90
75321;DHT22;68337;52.196;5.660;2023-06-01T09:17:34;18.80;99.90
75321;DHT22;68337;52.196;5.660;2023-06-01T09:20:02;18.90;99.90
75321;DHT22;68337;52.196;5.660;2023-06-01T09:22:42;18.90;99.90
75321;DHT22;68337;52.196;5.660;2023-06-01T09:25:12;18.50;99.90
75321;DHT22;68337;52.196;5.660;2023-06-01T09:27:51;18.20;99.90
75321;DHT22;68337;52.196;5.660;2023-06-01T09:30:18;18.70;99.90
75321;DHT22;68337;52.196;5.660;2023-06-01T09:32:44;19.00;99.90
75321;DHT22;68337;52.196;5.660;2023-06-01T09:35:16;18.70;99.90
75321;DHT22;68337;52.196;5.660;2023-06-01T09:37:54;18.60;99.90
75321;DHT22;68337;52.196;5.660;2023-06-01T09:40:21;19.10;99.90
75321;DHT22;68337;52.196;5.660;2023-06-01T09:42:47;19.70;99.90
75321;DHT22;68337;52.196;5.660;2023-06-01T09:45:20;20.00;99.90
75321;DHT22;68337;52.196;5.660;2023-06-01T09:47:49;20.20;99.90
75321;DHT22;68337;52.196;5.660;2023-06-01T09:50:37;20.30;99.90
75321;DHT22;68337;52.196;5.660;2023-06-01T09:53:04;19.90;99.90
75321;DHT22;68337;52.196;5.660;2023-06-01T09:55:31;20.70;99.90
75321;DHT22;68337;52.196;5.660;2023-06-01T09:58:19;20.20;99.90
75321;DHT22;68337;52.196;5.660;2023-06-01T10:00:47;20.90;99.90
75321;DHT22;68337;52.196;5.660;2023-06-01T10:03:14;20.80;99.90
75321;DHT22;68337;52.196;5.660;2023-06-01T10:05:40;20.90;99.90
75321;DHT22;68337;52.196;5.660;2023-06-01T10:08:06;20.60;99.90
75321;DHT22;68337;52.196;5.660;2023-06-01T10:10:32;20.70;99.90
75321;DHT22;68337;52.196;5.660;2023-06-01T10:12:58;20.70;99.90
75321;DHT22;68337;52.196;5.660;2023-06-01T10:15:24;20.90;99.90
75321;DHT22;68337;52.196;5.660;2023-06-01T10:17:50;20.40;99.90
75321;DHT22;68337;52.196;5.660;2023-06-01T10:20:16;20.30;99.90
75321;DHT22;68337;52.196;5.660;2023-06-01T10:22:45;20.10;99.90
75321;DHT22;68337;52.196;5.660;2023-06-01T10:25:14;20.90;99.90
75321;DHT22;68337;52.196;5.660;2023-06-01T10:27:52;20.90;99.90
75321;DHT22;68337;52.196;5.660;2023-06-01T10:30:20;21.20;99.90
75321;DHT22;68337;52.196;5.660;2023-06-01T10:32:47;19.80;99.90
75321;DHT22;68337;52.196;5.660;2023-06-01T10:40:39;20.60;99.90
75321;DHT22;68337;52.196;5.660;2023-06-01T10:43:05;21.00;99.90
75321;DHT22;68337;52.196;5.660;2023-06-01T10:48:00;20.60;99.90
75321;DHT22;68337;52.196;5.660;2023-06-01T10:50:25;20.30;99.90
75321;DHT22;68337;52.196;5.660;2023-06-01T10:52:54;20.50;99.90
75321;DHT22;68337;52.196;5.660;2023-06-01T10:55:25;21.10;99.90
75321;DHT22;68337;52.196;5.660;2023-06-01T10:58:18;20.70;99.90
75321;DHT22;68337;52.196;5.660;2023-06-01T11:00:41;20.70;99.90
75321;DHT22;68337;52.196;5.660;2023-06-01T11:03:06;20.50;99.90
75321;DHT22;68337;52.196;5.660;2023-06-01T11:10:56;21.00;99.90
75321;DHT22;68337;52.196;5.660;2023-06-01T11:13:28;21.50;99.90
75321;DHT22;68337;52.196;5.660;2023-06-01T11:18:54;21.20;99.90
75321;DHT22;68337;52.196;5.660;2023-06-01T11:23:55;21.90;98.90
75321;DHT22;68337;52.196;5.660;2023-06-01T11:26:23;22.40;98.40
75321;DHT22;68337;52.196;5.660;2023-06-01T11:28:58;22.60;96.80
75321;DHT22;68337;52.196;5.660;2023-06-01T11:31:27;22.30;97.30
75321;DHT22;68337;52.196;5.660;2023-06-01T11:33:59;21.80;97.70
75321;DHT22;68337;52.196;5.660;2023-06-01T11:36:26;21.40;98.10
75321;DHT22;68337;52.196;5.660;2023-06-01T11:38:55;21.40;98.80
75321;DHT22;68337;52.196;5.660;2023-06-01T11:41:24;21.40;98.80
75321;DHT22;68337;52.196;5.660;2023-06-01T11:43:55;22.20;97.90
75321;DHT22;68337;52.196;5.660;2023-06-01T11:46:22;22.10;97.20
75321;DHT22;68337;52.196;5.660;2023-06-01T11:49:06;21.80;97.40
75321;DHT22;68337;52.196;5.660;2023-06-01T11:51:33;21.60;97.80
75321;DHT22;68337;52.196;5.660;2023-06-01T11:54:02;21.50;98.20
75321;DHT22;68337;52.196;5.660;2023-06-01T11:56:32;21.00;99.90
75321;DHT22;68337;52.196;5.660;2023-06-01T11:59:02;20.70;99.90
75321;DHT22;68337;52.196;5.660;2023-06-01T12:01:34;20.90;99.90
75321;DHT22;68337;52.196;5.660;2023-06-01T12:03:59;21.20;99.10
75321;DHT22;68337;52.196;5.660;2023-06-01T12:06:27;20.80;99.90
75321;DHT22;68337;52.196;5.660;2023-06-01T12:08:55;20.80;99.90
75321;DHT22;68337;52.196;5.660;2023-06-01T12:11:27;20.60;99.90
75321;DHT22;68337;52.196;5.660;2023-06-01T12:13:54;20.50;99.90
75321;DHT22;68337;52.196;5.660;2023-06-01T12:16:21;21.20;99.90
75321;DHT22;68337;52.196;5.660;2023-06-01T12:18:46;21.20;99.90
75321;DHT22;68337;52.196;5.660;2023-06-01T12:21:13;20.50;99.90
75321;DHT22;68337;52.196;5.660;2023-06-01T12:23:39;19.70;99.90
75321;DHT22;68337;52.196;5.660;2023-06-01T12:26:05;19.40;99.90
75321;DHT22;68337;52.196;5.660;2023-06-01T12:28:50;19.90;99.90
75321;DHT22;68337;52.196;5.660;2023-06-01T12:31:18;19.60;99.90
75321;DHT22;68337;52.196;5.660;2023-06-01T12:33:45;19.80;99.90
75321;DHT22;68337;52.196;5.660;2023-06-01T12:36:31;19.90;99.90
75321;DHT22;68337;52.196;5.660;2023-06-01T12:38:58;19.40;99.90
75321;DHT22;68337;52.196;5.660;2023-06-01T12:41:27;18.80;99.90
75321;DHT22;68337;52.196;5.660;2023-06-01T12:43:54;18.10;99.90
75321;DHT22;68337;52.196;5.660;2023-06-01T12:46:26;18.00;99.90
75321;DHT22;68337;52.196;5.660;2023-06-01T12:48:54;17.80;99.90
75321;DHT22;68337;52.196;5.660;2023-06-01T12:51:20;17.80;99.90
75321;DHT22;68337;52.196;5.660;2023-06-01T12:53:47;17.50;99.90
75321;DHT22;68337;52.196;5.660;2023-06-01T12:56:13;17.70;99.90
75321;DHT22;68337;52.196;5.660;2023-06-01T12:58:39;18.30;99.90
75321;DHT22;68337;52.196;5.660;2023-06-01T13:01:05;18.50;99.90
75321;DHT22;68337;52.196;5.660;2023-06-01T13:03:32;18.60;99.90
75321;DHT22;68337;52.196;5.660;2023-06-01T13:05:58;18.50;99.90
75321;DHT22;68337;52.196;5.660;2023-06-01T13:08:23;17.80;99.90
75321;DHT22;68337;52.196;5.660;2023-06-01T13:10:49;17.80;99.90
75321;DHT22;68337;52.196;5.660;2023-06-01T13:13:15;17.90;99.90
75321;DHT22;68337;52.196;5.660;2023-06-01T13:15:42;17.70;99.90
75321;DHT22;68337;52.196;5.660;2023-06-01T13:18:08;17.40;99.90
75321;DHT22;68337;52.196;5.660;2023-06-01T13:20:35;17.70;99.90
75321;DHT22;68337;52.196;5.660;2023-06-01T13:23:01;17.60;99.90
75321;DHT22;68337;52.196;5.660;2023-06-01T13:25:30;17.20;99.90
75321;DHT22;68337;52.196;5.660;2023-06-01T13:27:55;17.30;99.90
75321;DHT22;68337;52.196;5.660;2023-06-01T13:30:21;17.30;99.90
75321;DHT22;68337;52.196;5.660;2023-06-01T13:32:48;17.20;99.90
75321;DHT22;68337;52.196;5.660;2023-06-01T13:35:14;17.00;99.90
75321;DHT22;68337;52.196;5.660;2023-06-01T13:37:40;17.40;99.90
75321;DHT22;68337;52.196;5.660;2023-06-01T13:40:09;17.20;99.90
75321;DHT22;68337;52.196;5.660;2023-06-01T13:42:35;17.00;99.90
75321;DHT22;68337;52.196;5.660;2023-06-01T13:45:00;16.80;99.90
75321;DHT22;68337;52.196;5.660;2023-06-01T13:47:26;16.80;99.90
75321;DHT22;68337;52.196;5.660;2023-06-01T13:49:52;16.90;99.90
75321;DHT22;68337;52.196;5.660;2023-06-01T13:52:18;16.80;99.90
75321;DHT22;68337;52.196;5.660;2023-06-01T13:54:44;16.70;99.90
75321;DHT22;68337;52.196;5.660;2023-06-01T13:57:10;16.80;99.90
75321;DHT22;68337;52.196;5.660;2023-06-01T13:59:36;16.90;99.90
75321;DHT22;68337;52.196;5.660;2023-06-01T14:02:02;16.90;99.90
75321;DHT22;68337;52.196;5.660;2023-06-01T14:04:29;16.90;99.90
75321;DHT22;68337;52.196;5.660;2023-06-01T14:06:57;17.00;99.90
75321;DHT22;68337;52.196;5.660;2023-06-01T14:09:23;16.90;99.90
75321;DHT22;68337;52.196;5.660;2023-06-01T14:11:49;17.00;99.90
75321;DHT22;68337;52.196;5.660;2023-06-01T14:14:15;17.00;99.90
75321;DHT22;68337;52.196;5.660;2023-06-01T14:16:41;16.40;99.90
75321;DHT22;68337;52.196;5.660;2023-06-01T14:19:07;17.10;99.90
75321;DHT22;68337;52.196;5.660;2023-06-01T14:21:32;17.40;99.90
75321;DHT22;68337;52.196;5.660;2023-06-01T14:24:00;17.00;99.90
75321;DHT22;68337;52.196;5.660;2023-06-01T14:26:26;16.90;99.90
75321;DHT22;68337;52.196;5.660;2023-06-01T14:28:52;17.10;99.90
75321;DHT22;68337;52.196;5.660;2023-06-01T14:31:18;17.20;99.90
75321;DHT22;68337;52.196;5.660;2023-06-01T14:33:48;17.20;99.90
75321;DHT22;68337;52.196;5.660;2023-06-01T14:36:13;16.90;99.90
75321;DHT22;68337;52.196;5.660;2023-06-01T14:38:39;16.90;99.90
75321;DHT22;68337;52.196;5.660;2023-06-01T14:41:06;17.10;99.90
75321;DHT22;68337;52.196;5.660;2023-06-01T14:43:32;17.00;99.90
75321;DHT22;68337;52.196;5.660;2023-06-01T14:45:58;17.00;99.90
75321;DHT22;68337;52.196;5.660;2023-06-01T14:48:24;17.20;99.90
75321;DHT22;68337;52.196;5.660;2023-06-01T14:50:50;16.80;99.90
75321;DHT22;68337;52.196;5.660;2023-06-01T14:53:16;16.40;99.90
75321;DHT22;68337;52.196;5.660;2023-06-01T14:55:42;16.50;99.90
75321;DHT22;68337;52.196;5.660;2023-06-01T14:58:10;16.20;99.90
75321;DHT22;68337;52.196;5.660;2023-06-01T15:00:36;16.10;99.90
75321;DHT22;68337;52.196;5.660;2023-06-01T15:03:03;16.10;99.90
75321;DHT22;68337;52.196;5.660;2023-06-01T15:05:32;16.20;99.90
75321;DHT22;68337;52.196;5.660;2023-06-01T15:07:58;16.40;99.90
75321;DHT22;68337;52.196;5.660;2023-06-01T15:10:24;16.40;99.90
75321;DHT22;68337;52.196;5.660;2023-06-01T15:12:50;16.40;99.90
75321;DHT22;68337;52.196;5.660;2023-06-01T15:15:17;16.30;99.90
75321;DHT22;68337;52.196;5.660;2023-06-01T15:17:42;16.30;99.90
75321;DHT22;68337;52.196;5.660;2023-06-01T15:20:08;16.20;99.90
75321;DHT22;68337;52.196;5.660;2023-06-01T15:22:34;16.30;99.90
75321;DHT22;68337;52.196;5.660;2023-06-01T15:24:59;16.60;99.90
75321;DHT22;68337;52.196;5.660;2023-06-01T15:27:25;16.60;99.90
75321;DHT22;68337;52.196;5.660;2023-06-01T15:29:51;16.70;99.90
75321;DHT22;68337;52.196;5.660;2023-06-01T15:32:17;16.90;99.90
75321;DHT22;68337;52.196;5.660;2023-06-01T15:34:42;17.10;99.90
75321;DHT22;68337;52.196;5.660;2023-06-01T15:37:09;16.90;99.90
75321;DHT22;68337;52.196;5.660;2023-06-01T15:39:35;17.00;99.90
75321;DHT22;68337;52.196;5.660;2023-06-01T15:42:05;16.80;99.90
75321;DHT22;68337;52.196;5.660;2023-06-01T15:44:31;16.90;99.90
75321;DHT22;68337;52.196;5.660;2023-06-01T15:46:57;17.00;99.90
75321;DHT22;68337;52.196;5.660;2023-06-01T15:49:23;16.90;99.90
75321;DHT22;68337;52.196;5.660;2023-06-01T15:51:49;16.50;99.90
75321;DHT22;68337;52.196;5.660;2023-06-01T15:54:15;16.90;99.90
75321;DHT22;68337;52.196;5.660;2023-06-01T15:56:42;16.80;99.90